createdAt,value
2019-01-04T00:00:59.348Z,9.23
2019-01-04T00:03:27.707Z,9.80
2019-01-04T00:05:55.959Z,8.00
2019-01-04T00:08:24.505Z,8.80
2019-01-04T00:10:52.766Z,8.70
2019-01-04T00:13:21.077Z,9.47
2019-01-04T00:15:49.329Z,8.40
2019-01-04T00:18:17.630Z,8.50
2019-01-04T00:20:46.461Z,8.13
2019-01-04T00:23:15.106Z,8.90
2019-01-04T00:25:43.607Z,7.87
2019-01-04T00:28:12.077Z,8.90
2019-01-04T00:30:40.514Z,8.77
2019-01-04T00:33:08.855Z,9.37
2019-01-04T00:35:37.501Z,9.87
2019-01-04T00:38:06.075Z,8.77
2019-01-04T00:40:34.875Z,9.80
2019-01-04T00:43:03.465Z,9.13
2019-01-04T00:45:31.734Z,9.43
2019-01-04T00:48:00.414Z,9.40
2019-01-04T00:50:28.786Z,10.70
2019-01-04T00:52:57.070Z,9.93
2019-01-04T00:55:35.661Z,7.13
2019-01-04T00:58:32.506Z,8.77
2019-01-04T01:01:38.519Z,8.87
2019-01-04T01:04:37.866Z,8.50
2019-01-04T01:07:21.600Z,8.40
2019-01-04T01:10:08.406Z,7.37
2019-01-04T01:13:03.570Z,7.60
2019-01-04T01:15:50.362Z,7.40
2019-01-04T01:18:27.136Z,8.00
2019-01-04T01:21:13.403Z,7.87
2019-01-04T01:23:59.970Z,7.70
2019-01-04T01:26:46.457Z,8.00
2019-01-04T01:29:32.664Z,6.10
2019-01-04T01:32:19.340Z,7.10
2019-01-04T01:34:56.987Z,8.77
2019-01-04T01:37:43.150Z,6.63
2019-01-04T01:40:39.826Z,7.50
2019-01-04T01:43:26.402Z,6.87
2019-01-04T01:46:29.378Z,8.80
2019-01-04T01:49:10.603Z,9.07
2019-01-04T01:51:42.085Z,7.13
2019-01-04T01:54:10.397Z,7.93
2019-01-04T01:56:38.772Z,10.23
2019-01-04T01:59:07.067Z,10.73
2019-01-04T02:01:42.380Z,7.95
2019-01-04T02:04:10.651Z,9.63
2019-01-04T02:06:38.929Z,6.73
2019-01-04T02:09:08.347Z,9.90
2019-01-04T02:11:36.724Z,7.80
2019-01-04T02:14:05.052Z,8.17
2019-01-04T02:16:33.675Z,9.77
2019-01-04T02:19:02.026Z,9.80
2019-01-04T02:21:30.379Z,7.80
2019-01-04T02:23:58.730Z,7.40
2019-01-04T02:26:27.281Z,7.87
2019-01-04T02:28:55.574Z,9.10
2019-01-04T02:31:23.880Z,21.10
2019-01-04T02:33:52.642Z,10.70
2019-01-04T02:36:21.050Z,14.50
2019-01-04T02:38:49.307Z,9.40
2019-01-04T02:41:17.686Z,9.67
2019-01-04T02:43:45.965Z,11.27
2019-01-04T02:46:14.335Z,26.23
2019-01-04T02:48:42.593Z,11.47
2019-01-04T02:51:10.881Z,16.47
2019-01-04T02:53:39.157Z,10.50
2019-01-04T02:56:07.425Z,9.80
2019-01-04T02:58:35.701Z,17.10
2019-01-04T03:01:03.989Z,86.60
2019-01-04T03:03:32.657Z,24.20
2019-01-04T03:06:01.024Z,13.97
2019-01-04T03:08:29.617Z,15.40
2019-01-04T03:10:57.939Z,23.27
2019-01-04T03:13:26.210Z,17.00
2019-01-04T03:15:54.851Z,14.23
2019-01-04T03:18:23.122Z,30.07
2019-01-04T03:20:51.560Z,15.63
2019-01-04T03:23:20.089Z,12.33
2019-01-04T03:25:48.372Z,20.03
2019-01-04T03:28:16.644Z,13.23
2019-01-04T03:30:44.896Z,12.07
2019-01-04T03:33:13.239Z,13.87
2019-01-04T03:35:41.701Z,18.00
2019-01-04T03:38:10.217Z,12.63
2019-01-04T03:40:38.736Z,28.03
2019-01-04T03:43:07.033Z,16.00
2019-01-04T03:45:35.290Z,15.33
2019-01-04T03:48:03.577Z,47.10
2019-01-04T03:50:32.061Z,19.03
2019-01-04T03:53:00.321Z,26.93
2019-01-04T03:55:28.595Z,56.83
2019-01-04T03:57:56.841Z,18.03
2019-01-04T04:00:25.100Z,15.73
2019-01-04T04:02:53.942Z,13.67
2019-01-04T04:05:22.238Z,16.77
2019-01-04T04:07:50.626Z,149.53
2019-01-04T04:10:18.975Z,67.33
2019-01-04T04:12:47.556Z,23.40
2019-01-04T04:15:15.806Z,18.50
2019-01-04T04:17:44.094Z,16.43
2019-01-04T04:20:12.413Z,17.00
2019-01-04T04:22:40.723Z,26.13
2019-01-04T04:25:09.146Z,21.00
2019-01-04T04:27:37.409Z,21.87
2019-01-04T04:30:06.002Z,79.93
2019-01-04T04:32:34.282Z,22.93
2019-01-04T04:35:02.567Z,240.70
2019-01-04T04:37:30.888Z,21.20
2019-01-04T04:39:59.237Z,64.63
2019-01-04T04:42:27.518Z,54.23
2019-01-04T04:44:55.883Z,60.90
2019-01-04T04:47:24.434Z,124.57
2019-01-04T04:49:52.694Z,33.23
2019-01-04T04:52:20.997Z,44.17
2019-01-04T04:54:49.262Z,31.30
2019-01-04T04:57:17.508Z,55.20
2019-01-04T04:59:46.042Z,63.30
2019-01-04T05:02:14.294Z,39.33
2019-01-04T05:04:42.627Z,147.60
2019-01-04T05:07:11.257Z,49.30
2019-01-04T05:09:39.513Z,32.37
2019-01-04T05:12:07.822Z,101.97
2019-01-04T05:14:36.124Z,36.93
2019-01-04T05:17:04.493Z,33.33
2019-01-04T05:19:32.797Z,58.37
2019-01-04T05:22:01.053Z,31.13
2019-01-04T05:24:29.308Z,29.20
2019-01-04T05:26:57.585Z,28.50
2019-01-04T05:29:25.855Z,25.93
2019-01-04T05:31:54.125Z,64.43
2019-01-04T05:34:22.373Z,35.17
2019-01-04T05:36:50.650Z,39.73
2019-01-04T05:39:18.905Z,44.73
2019-01-04T05:41:47.194Z,103.93
2019-01-04T05:44:15.548Z,37.80
2019-01-04T05:46:44.090Z,59.07
2019-01-04T05:49:12.357Z,38.03
2019-01-04T05:51:40.690Z,37.20
2019-01-04T05:54:08.950Z,27.70
2019-01-04T05:56:37.215Z,29.03
2019-01-04T05:59:05.481Z,62.57
2019-01-04T06:01:33.747Z,29.50
2019-01-04T06:04:02.031Z,29.60
2019-01-04T06:06:30.291Z,57.50
2019-01-04T06:08:58.542Z,32.30
2019-01-04T06:11:26.865Z,37.83
2019-01-04T06:13:55.391Z,37.60
2019-01-04T06:16:23.642Z,38.77
2019-01-04T06:18:52.001Z,31.73
2019-01-04T06:21:20.276Z,72.10
2019-01-04T06:23:48.630Z,190.80
2019-01-04T06:26:16.913Z,143.20
2019-01-04T06:28:45.181Z,68.57
2019-01-04T06:31:13.433Z,50.67
2019-01-04T06:33:41.956Z,55.30
2019-01-04T06:36:10.203Z,70.30
2019-01-04T06:38:38.526Z,142.57
2019-01-04T06:41:06.820Z,86.83
2019-01-04T06:43:35.095Z,38.37
2019-01-04T06:46:03.521Z,60.77
2019-01-04T06:48:32.145Z,91.80
2019-01-04T06:51:00.809Z,85.40
2019-01-04T06:53:29.070Z,58.40
2019-01-04T06:55:58.761Z,37.30
2019-01-04T06:58:27.063Z,38.00
2019-01-04T07:00:55.462Z,30.90
2019-01-04T07:03:23.753Z,27.90
2019-01-04T07:05:52.013Z,28.33
2019-01-04T07:08:20.281Z,104.63
2019-01-04T07:10:48.537Z,97.43
2019-01-04T07:13:17.140Z,31.80
2019-01-04T07:15:45.417Z,35.97
2019-01-04T07:18:13.821Z,40.93
2019-01-04T07:20:42.168Z,33.10
2019-01-04T07:23:10.470Z,28.47
2019-01-04T07:25:38.748Z,125.87
2019-01-04T07:28:07.045Z,32.50
2019-01-04T07:30:35.403Z,122.90
2019-01-04T07:33:03.865Z,35.53
2019-01-04T07:35:32.154Z,34.87
2019-01-04T07:38:00.537Z,211.17
2019-01-04T07:40:28.805Z,153.70
2019-01-04T07:42:57.137Z,32.87
2019-01-04T07:45:25.421Z,32.73
2019-01-04T07:47:54.237Z,35.80
2019-01-04T07:50:22.512Z,79.00
2019-01-04T07:52:50.765Z,35.47
2019-01-04T07:55:19.066Z,94.23
2019-01-04T07:57:47.337Z,67.10
2019-01-04T08:00:16.032Z,102.60
2019-01-04T08:02:45.322Z,38.13
2019-01-04T08:05:17.917Z,34.90
2019-01-04T08:07:46.306Z,56.53
2019-01-04T08:10:14.865Z,44.90
2019-01-04T08:12:43.137Z,36.33
2019-01-04T08:15:11.407Z,96.77
2019-01-04T08:17:39.692Z,62.53
2019-01-04T08:20:08.406Z,84.13
2019-01-04T08:22:36.757Z,109.33
2019-01-04T08:25:05.490Z,129.70
2019-01-04T08:27:34.037Z,239.80
2019-01-04T08:30:02.362Z,118.33
2019-01-04T08:32:30.668Z,55.17
2019-01-04T08:34:59.405Z,37.33
2019-01-04T08:37:27.669Z,35.33
2019-01-04T08:39:56.237Z,107.17
2019-01-04T08:42:24.621Z,85.10
2019-01-04T08:44:53.284Z,66.77
2019-01-04T08:47:21.837Z,59.63
2019-01-04T08:49:50.169Z,99.60
2019-01-04T08:52:18.458Z,72.70
2019-01-04T08:54:47.105Z,129.77
2019-01-04T08:57:15.402Z,59.10
2019-01-04T08:59:43.801Z,86.73
2019-01-04T09:02:12.450Z,61.90
2019-01-04T09:04:40.749Z,76.50
2019-01-04T09:07:09.133Z,88.00
2019-01-04T09:09:37.384Z,145.60
2019-01-04T09:12:06.109Z,155.57
2019-01-04T09:14:34.413Z,43.63
2019-01-04T09:17:02.677Z,106.97
2019-01-04T09:19:30.941Z,97.53
2019-01-04T09:21:59.458Z,231.37
2019-01-04T09:24:27.734Z,100.80
2019-01-04T09:26:56.041Z,282.13
2019-01-04T09:29:24.305Z,157.53
2019-01-04T09:31:52.582Z,247.20
2019-01-04T09:34:21.161Z,106.10
2019-01-04T09:36:49.441Z,352.90
2019-01-04T09:39:17.710Z,188.37
2019-01-04T09:41:48.905Z,140.37
2019-01-04T09:44:17.561Z,330.97
2019-01-04T09:46:45.930Z,186.90
2019-01-04T09:49:14.207Z,272.97
2019-01-04T09:51:42.507Z,574.00
2019-01-04T09:54:11.163Z,206.27
2019-01-04T09:56:39.440Z,174.57
2019-01-04T09:59:08.586Z,185.90
2019-01-04T10:01:36.866Z,130.47
2019-01-04T10:04:05.137Z,267.43
2019-01-04T10:06:33.418Z,287.00
2019-01-04T10:09:01.732Z,135.77
2019-01-04T10:11:30.052Z,272.57
2019-01-04T10:13:58.606Z,237.20
2019-01-04T10:16:27.214Z,314.47
2019-01-04T10:18:56.750Z,242.90
2019-01-04T10:21:25.496Z,148.47
2019-01-04T10:23:54.145Z,313.93
2019-01-04T10:26:22.426Z,560.63
2019-01-04T10:28:50.929Z,411.30
2019-01-04T10:31:19.197Z,230.70
2019-01-04T10:33:47.730Z,273.07
2019-01-04T10:36:16.000Z,227.80
2019-01-04T10:38:44.633Z,461.93
2019-01-04T10:41:13.233Z,245.27
2019-01-04T10:43:41.607Z,181.03
2019-01-04T10:46:09.915Z,266.23
2019-01-04T10:48:38.282Z,376.13
2019-01-04T10:51:06.656Z,627.00
2019-01-04T10:53:35.154Z,397.87
2019-01-04T10:56:03.529Z,322.37
2019-01-04T10:58:31.902Z,166.27
2019-01-04T11:01:00.261Z,331.53
2019-01-04T11:03:28.655Z,337.23
2019-01-04T11:05:57.045Z,287.93
2019-01-04T11:08:25.311Z,410.77
2019-01-04T11:10:53.878Z,478.57
2019-01-04T11:13:22.341Z,440.63
2019-01-04T11:15:50.625Z,385.20
2019-01-04T11:18:19.229Z,677.37
2019-01-04T11:20:48.436Z,450.77
2019-01-04T11:23:51.118Z,372.17
2019-01-04T11:26:24.637Z,269.23
2019-01-04T11:29:24.544Z,609.53
2019-01-04T11:31:55.665Z,398.20
2019-01-04T11:34:38.038Z,267.17
2019-01-04T11:37:25.630Z,454.20
2019-01-04T11:40:31.368Z,154.57
2019-01-04T11:43:19.003Z,435.30
2019-01-04T11:46:07.278Z,348.37
2019-01-04T11:48:55.121Z,345.80
2019-01-04T11:51:41.482Z,712.03
2019-01-04T11:54:12.424Z,355.13
2019-01-04T11:56:40.784Z,410.33
2019-01-04T11:59:09.153Z,309.53
2019-01-04T12:01:37.429Z,477.67
2019-01-04T12:04:05.894Z,551.97
2019-01-04T12:06:35.206Z,528.30
2019-01-04T12:09:05.355Z,524.37
2019-01-04T12:11:33.705Z,388.77
2019-01-04T12:14:01.965Z,437.37
2019-01-04T12:16:30.277Z,526.70
2019-01-04T12:18:58.638Z,481.40
2019-01-04T12:21:27.006Z,560.27
2019-01-04T12:23:55.303Z,540.13
2019-01-04T12:26:23.778Z,477.00
2019-01-04T12:28:52.169Z,621.70
2019-01-04T12:31:20.453Z,485.27
2019-01-04T12:33:48.805Z,545.37
2019-01-04T12:36:17.065Z,544.53
2019-01-04T12:38:45.651Z,438.43
2019-01-04T12:41:13.929Z,641.40
2019-01-04T12:43:47.829Z,483.60
2019-01-04T12:46:12.741Z,660.87
2019-01-04T12:48:41.014Z,478.73
2019-01-04T12:51:09.295Z,484.50
2019-01-04T12:53:37.598Z,470.37
2019-01-04T12:56:05.858Z,491.63
2019-01-04T12:58:34.239Z,623.97
2019-01-04T13:01:02.803Z,535.10
2019-01-04T13:03:31.077Z,586.90
2019-01-04T13:05:59.342Z,607.37
2019-01-04T13:08:27.649Z,417.23
2019-01-04T13:10:55.927Z,544.53
2019-01-04T13:13:24.309Z,728.10
2019-01-04T13:15:52.869Z,825.80
2019-01-04T13:18:21.161Z,787.50
2019-01-04T13:20:49.689Z,757.87
2019-01-04T13:23:18.309Z,878.97
2019-01-04T13:25:46.613Z,710.40
2019-01-04T13:28:14.882Z,900.53
2019-01-04T13:30:43.257Z,855.77
2019-01-04T13:33:11.522Z,720.50
2019-01-04T13:35:40.113Z,918.07
2019-01-04T13:38:09.428Z,796.00
2019-01-04T13:40:38.091Z,932.30
2019-01-04T13:43:06.430Z,799.03
2019-01-04T13:45:34.697Z,681.63
2019-01-04T13:48:03.241Z,765.53
2019-01-04T13:50:31.635Z,918.13
2019-01-04T13:52:59.894Z,712.80
2019-01-04T13:55:28.270Z,764.27
2019-01-04T13:57:56.529Z,961.50
2019-01-04T14:00:24.813Z,757.73
2019-01-04T14:02:53.069Z,819.07
2019-01-04T14:05:21.362Z,877.03
2019-01-04T14:07:49.635Z,881.63
2019-01-04T14:10:17.954Z,916.57
2019-01-04T14:12:46.207Z,936.67
2019-01-04T14:15:14.548Z,766.80
2019-01-04T14:17:42.866Z,837.93
2019-01-04T14:20:11.133Z,858.10
2019-01-04T14:22:39.494Z,991.57
2019-01-04T14:25:08.060Z,970.07
2019-01-04T14:27:36.413Z,824.63
2019-01-04T14:30:05.513Z,809.73
2019-01-04T14:32:33.811Z,887.70
2019-01-04T14:35:02.146Z,907.33
2019-01-04T14:37:30.690Z,971.93
2019-01-04T14:39:58.976Z,972.43
2019-01-04T14:42:27.263Z,707.87
2019-01-04T14:44:55.630Z,828.07
2019-01-04T14:47:23.905Z,999.90
2019-01-04T14:49:52.597Z,921.67
2019-01-04T14:52:20.882Z,784.90
2019-01-04T14:54:49.489Z,972.67
2019-01-04T14:57:17.806Z,960.00
2019-01-04T14:59:46.262Z,773.30
2019-01-04T15:02:14.629Z,970.87
2019-01-04T15:04:48.822Z,827.13
2019-01-04T15:07:17.117Z,810.17
2019-01-04T15:09:45.392Z,784.93
2019-01-04T15:12:13.741Z,803.53
2019-01-04T15:14:42.263Z,637.33
2019-01-04T15:17:14.251Z,732.91
2019-01-04T15:19:42.817Z,825.80
2019-01-04T15:22:11.153Z,993.17
2019-01-04T15:24:40.027Z,949.13
2019-01-04T15:27:08.910Z,909.60
2019-01-04T15:29:37.490Z,999.90
2019-01-04T15:32:06.076Z,999.90
2019-01-04T15:34:34.753Z,999.90
2019-01-04T15:37:03.051Z,935.67
2019-01-04T15:39:31.620Z,994.60
2019-01-04T15:42:00.177Z,999.90
2019-01-04T15:44:36.274Z,999.90
2019-01-04T15:47:04.983Z,955.20
2019-01-04T15:49:33.648Z,999.90
2019-01-04T15:52:01.914Z,999.90
2019-01-04T15:54:30.534Z,982.90
2019-01-04T15:56:58.802Z,999.90
2019-01-04T15:59:27.081Z,939.90
2019-01-04T16:01:55.436Z,999.90
2019-01-04T16:04:23.727Z,999.90
2019-01-04T16:06:52.113Z,999.90
2019-01-04T16:09:20.385Z,999.90
2019-01-04T16:11:48.962Z,999.90
2019-01-04T16:14:17.345Z,904.60
2019-01-04T16:16:45.714Z,999.90
2019-01-04T16:19:14.255Z,999.90
2019-01-04T16:21:42.888Z,785.17
2019-01-04T16:24:11.266Z,949.77
2019-01-04T16:26:39.622Z,997.57
2019-01-04T16:29:07.946Z,994.03
2019-01-04T16:31:36.209Z,999.90
2019-01-04T16:34:04.874Z,819.20
2019-01-04T16:36:33.245Z,931.10
2019-01-04T16:39:01.517Z,720.03
2019-01-04T16:41:29.818Z,895.90
2019-01-04T16:43:59.741Z,668.53
2019-01-04T16:46:28.110Z,935.27
2019-01-04T16:48:56.386Z,833.90
2019-01-04T16:51:24.785Z,949.73
2019-01-04T16:53:53.149Z,799.80
2019-01-04T16:56:21.517Z,825.10
2019-01-04T16:58:49.853Z,961.47
2019-01-04T17:01:18.412Z,768.27
2019-01-04T17:03:46.772Z,744.17
2019-01-04T17:06:15.289Z,817.30
2019-01-04T17:08:43.829Z,722.57
2019-01-04T17:11:12.190Z,758.50
2019-01-04T17:13:40.577Z,782.97
2019-01-04T17:16:08.864Z,729.00
2019-01-04T17:18:37.129Z,853.03
2019-01-04T17:21:05.792Z,738.47
2019-01-04T17:23:34.058Z,556.37
2019-01-04T17:26:02.348Z,556.33
2019-01-04T17:28:30.749Z,724.00
2019-01-04T17:30:59.040Z,554.60
2019-01-04T17:33:27.481Z,499.10
2019-01-04T17:35:55.789Z,524.37
2019-01-04T17:38:24.052Z,585.07
2019-01-04T17:40:55.458Z,733.13
2019-01-04T17:43:26.421Z,492.87
2019-01-04T17:45:55.601Z,555.73
2019-01-04T17:48:26.814Z,508.80
2019-01-04T17:50:55.158Z,560.47
2019-01-04T17:53:23.572Z,455.37
2019-01-04T17:55:52.121Z,603.47
2019-01-04T17:58:20.583Z,548.57
2019-01-04T18:00:48.865Z,685.17
2019-01-04T18:03:18.056Z,572.87
2019-01-04T18:05:46.828Z,679.47
2019-01-04T18:08:15.483Z,729.20
2019-01-04T18:10:45.860Z,460.93
2019-01-04T18:13:18.309Z,736.93
2019-01-04T18:15:46.709Z,834.60
2019-01-04T18:18:15.390Z,709.80
2019-01-04T18:20:44.112Z,716.60
2019-01-04T18:23:12.581Z,805.80
2019-01-04T18:25:42.432Z,753.20
2019-01-04T18:28:11.052Z,825.00
2019-01-04T18:30:40.094Z,767.87
2019-01-04T18:33:08.640Z,686.30
2019-01-04T18:35:37.187Z,707.17
2019-01-04T18:38:05.709Z,685.10
2019-01-04T18:40:34.077Z,717.53
2019-01-04T18:43:17.572Z,542.53
2019-01-04T18:45:46.578Z,568.57
2019-01-04T18:48:15.510Z,666.67
2019-01-04T18:50:45.458Z,632.53
2019-01-04T18:53:14.384Z,656.90
2019-01-04T18:55:42.819Z,692.73
2019-01-04T18:58:11.430Z,643.47
2019-01-04T19:00:39.993Z,520.57
2019-01-04T19:03:08.406Z,481.87
2019-01-04T19:05:36.733Z,680.43
2019-01-04T19:08:05.002Z,727.53
2019-01-04T19:10:33.350Z,815.33
2019-01-04T19:13:01.658Z,882.60
2019-01-04T19:15:31.301Z,884.97
2019-01-04T19:18:00.878Z,837.67
2019-01-04T19:20:34.776Z,948.03
2019-01-04T19:23:08.066Z,876.53
2019-01-04T19:25:40.197Z,771.30
2019-01-04T19:28:13.629Z,936.97
2019-01-04T19:30:45.009Z,873.13
2019-01-04T19:33:17.740Z,957.63
2019-01-04T19:35:49.346Z,959.00
2019-01-04T19:38:20.913Z,822.70
2019-01-04T19:40:54.370Z,922.00
2019-01-04T19:43:25.090Z,980.30
2019-01-04T19:45:58.386Z,977.17
2019-01-04T19:48:31.549Z,886.73
2019-01-04T19:51:02.850Z,991.83
2019-01-04T19:53:34.527Z,999.90
2019-01-04T19:56:06.580Z,999.90
2019-01-04T19:58:35.025Z,977.97
2019-01-04T20:01:03.801Z,999.90
2019-01-04T20:03:32.189Z,912.73
2019-01-04T20:06:49.089Z,983.53
2019-01-04T20:09:43.552Z,875.90
2019-01-04T20:13:02.653Z,895.10
2019-01-04T20:16:05.861Z,743.23
2019-01-04T20:18:52.370Z,797.20
2019-01-04T20:21:44.690Z,921.73
2019-01-04T20:24:47.557Z,981.70
2019-01-04T20:27:38.566Z,875.77
2019-01-04T20:30:18.926Z,967.73
2019-01-04T20:33:05.237Z,873.70
2019-01-04T20:35:51.873Z,999.90
2019-01-04T20:38:45.093Z,999.90
2019-01-04T20:41:38.148Z,999.90
2019-01-04T20:44:24.858Z,999.90
2019-01-04T20:47:08.489Z,999.90
2019-01-04T20:49:58.042Z,972.53
2019-01-04T20:52:48.059Z,999.90
2019-01-04T20:55:30.353Z,983.73
2019-01-04T20:58:33.329Z,999.90
2019-01-04T21:01:19.221Z,999.90
2019-01-04T21:04:05.493Z,999.90
2019-01-04T21:06:52.161Z,999.90
2019-01-04T21:09:45.937Z,951.70
2019-01-04T21:12:45.902Z,998.90
2019-01-04T21:15:45.182Z,999.90
2019-01-04T21:18:30.101Z,999.90
2019-01-04T21:21:26.842Z,999.90
2019-01-04T21:24:13.077Z,999.90
2019-01-04T21:27:00.695Z,999.90
2019-01-04T21:29:41.026Z,892.30
2019-01-04T21:32:40.790Z,999.90
2019-01-04T21:35:36.809Z,999.90
2019-01-04T21:38:23.482Z,999.90
2019-01-04T21:41:10.481Z,999.90
2019-01-04T21:44:10.436Z,999.90
2019-01-04T21:47:06.790Z,999.90
2019-01-04T21:49:52.990Z,999.90
2019-01-04T21:52:40.525Z,999.90
2019-01-04T21:55:20.830Z,999.90
2019-01-04T21:58:05.413Z,999.90
2019-01-04T22:01:06.585Z,999.90
2019-01-04T22:03:55.270Z,999.90
2019-01-04T22:06:41.612Z,999.90
2019-01-04T22:09:28.198Z,999.90
2019-01-04T22:12:24.865Z,999.90
2019-01-04T22:15:15.800Z,960.63
2019-01-04T22:18:02.617Z,999.90
2019-01-04T22:20:50.516Z,999.90
2019-01-04T22:23:37.473Z,999.90
2019-01-04T22:26:29.955Z,999.90
2019-01-04T22:29:23.652Z,999.90
2019-01-04T22:32:12.347Z,999.90
2019-01-04T22:35:00.495Z,999.90
2019-01-04T22:37:48.400Z,999.90
2019-01-04T22:40:37.049Z,999.90
2019-01-04T22:43:26.050Z,999.90
2019-01-04T22:46:14.795Z,999.90
2019-01-04T22:49:02.151Z,999.90
2019-01-04T22:51:49.312Z,999.90
2019-01-04T22:54:37.492Z,999.90
2019-01-04T22:57:25.204Z,999.90
2019-01-04T23:00:19.065Z,999.90
2019-01-04T23:03:06.772Z,999.90
2019-01-04T23:06:01.258Z,999.90
2019-01-04T23:08:49.131Z,999.90
2019-01-04T23:11:33.133Z,999.90
2019-01-04T23:14:27.184Z,999.90
2019-01-04T23:17:14.913Z,999.90
2019-01-04T23:20:01.217Z,999.90
2019-01-04T23:22:57.746Z,999.90
2019-01-04T23:25:45.309Z,999.90
2019-01-04T23:28:35.965Z,999.90
2019-01-04T23:31:41.653Z,999.90
2019-01-04T23:34:29.140Z,999.90
2019-01-04T23:37:15.021Z,999.90
2019-01-04T23:40:01.206Z,999.90
2019-01-04T23:42:47.658Z,999.90
2019-01-04T23:45:30.801Z,999.90
2019-01-04T23:48:27.829Z,999.90
2019-01-04T23:51:14.353Z,999.90
2019-01-04T23:54:00.153Z,999.90
2019-01-04T23:56:58.561Z,999.90
2019-01-04T23:59:44.837Z,999.90
